• Join FlightAware (Why Join?)
  • Login
  • US Flag 
03:20AM EDT


 

Airport Tracker/Info


-or-


 

Live Flight TrackerFlight Track Log ✈ N5089N ✈ 25-May-2013 ✈ KCUB - KGYH

Flight Track Log - Related Links

Times and Time Zones

All times are in EDT time to prevent confusion due to time zone crossing. See the N5089N flight status page for this flight to view local times or setup timezone preferences in your user account.

Time Position Orientation Groundspeed Altitude Reporting Facility
EDT Latitude Longitude Course Direction KTS MPH feet Rate Location/Type
11:34AM 34.0679 -81.1632 305° West  Level Estimated
11:35AM 34.0873 -81.1968 305° West  Level Estimated
11:36AM 34.1068 -81.2305 305° West  Level Estimated
11:37AM 34.1262 -81.2641 305° West  Level Estimated
11:38AM 34.1456 -81.2978 305° West  Level Estimated
11:39AM 34.1651 -81.3315 305° West  Level Estimated
11:40AM 34.1845 -81.3652 305° West  Level Estimated
11:41AM 34.2039 -81.3989 305° West  Level Estimated
11:42AM 34.2233 -81.4326 305° West  Level Estimated
11:43AM 34.2426 -81.4664 305° West  Level Estimated
11:44AM 34.2620 -81.5002 305° West  Level Estimated
11:45AM 34.2814 -81.5340 305° West  Level Estimated
11:46AM 34.3007 -81.5678 305° West  Level Estimated
11:47AM 34.3201 -81.6016 305° West  Level Estimated
11:48AM 34.3394 -81.6354 305° West  Level Estimated
11:49AM 34.3587 -81.6693 305° West  Level Estimated
11:50AM 34.3780 -81.7031 305° West  Level Estimated
11:51AM 34.3974 -81.7370 305° West  Level Estimated
11:52AM 34.4166 -81.7709 305° West  Level Estimated
11:53AM 34.4359 -81.8048 305° West  Level Estimated
11:54AM 34.4552 -81.8387 305° West  Level Estimated
11:55AM 34.4745 -81.8727 305° West  Level Estimated
11:56AM 34.4938 -81.9066 305° West  Level Estimated
11:57AM 34.5130 -81.9406 305° West  Level Estimated
11:58AM 34.5322 -81.9746 305° West  Level Estimated
11:59AM 34.5515 -82.0086 304° West  Level Estimated
12:00PM 34.5707 -82.0426 304° West  Level Estimated
12:01PM 34.5899 -82.0767 304° West  Level Estimated
12:02PM 34.6091 -82.1107 304° West  Level Estimated
12:03PM 34.6283 -82.1448 304° West  Level Estimated
12:04PM 34.6475 -82.1789 304° West  Level Estimated
12:05PM 34.6666 -82.2130 304° West  Level Estimated
12:06PM 34.6858 -82.2471 304° West  Level Estimated
12:07PM 34.7050 -82.2812 304° West  Level Estimated
12:08PM 34.7241 -82.3154 304° West  Level Estimated
12:09PM 34.7433 -82.3495 304° West  Level Estimated
12:10PM 34.7583 -82.3764 304° West  Level Estimated
12:11PM 34.7583 -82.3764 148° Southeast  Level Estimated
12:12PM 34.7583 -82.3764 148° Southeast  Level Estimated
12:13PM 34.7583 -82.3764 148° Southeast  Level Estimated
12:14PM 34.7583 -82.3764 148° Southeast  Level Estimated
12:15PM 34.7583 -82.3764 148° Southeast  Level Estimated
12:16PM 34.7583 -82.3764 148° Southeast  Level Estimated
12:17PM 34.7583 -82.3764 148° Southeast  Level Estimated
12:18PM 34.7583 -82.3764 148° Southeast  Level Estimated
12:19PM 34.7583 -82.3764 148° Southeast  Level Estimated
12:20PM 34.7583 -82.3764 148° Southeast  Level Estimated
12:21PM 34.7583 -82.3764 148° Southeast  Level Estimated
12:22PM 34.7583 -82.3764 148° Southeast  Level Estimated
12:23PM 34.7583 -82.3764 148° Southeast  Level Estimated
12:24PM 34.7583 -82.3764 148° Southeast  Level Estimated
12:25PM 34.7583 -82.3764 148° Southeast  Level Estimated